Time;durP1;ratioP1;P1;durP2;ratioP2;P2;SDS_P1;SDS_P2;PMS_P1;PMS_P2;Temp;Humidity;BMP_temperature;BMP_pressure;BME280_temperature;BME280_humidity;BME280_pressure;Samples;Min_cycle;Max_cycle;Signal;HPM_P1;HPM_P2
2023/11/30 00:02:18;;;;;;;6.00;4.25;;;4.10;78.80;;;;;;4917389;29;20497;-73
2023/11/30 00:04:44;;;;;;;5.95;4.68;;;4.20;78.90;;;;;;4918058;29;20184;-74
2023/11/30 00:07:12;;;;;;;5.63;4.30;;;4.10;78.80;;;;;;4918367;29;20035;-73
2023/11/30 00:09:38;;;;;;;5.50;4.30;;;4.10;78.80;;;;;;4910808;29;20040;-74
2023/11/30 00:12:07;;;;;;;5.50;4.07;;;4.10;78.80;;;;;;4921940;29;20088;-73
2023/11/30 00:14:33;;;;;;;6.90;4.70;;;4.10;78.90;;;;;;4901954;29;20039;-73
2023/11/30 00:16:58;;;;;;;6.22;4.35;;;4.10;78.90;;;;;;4918201;29;20119;-73
2023/11/30 00:19:24;;;;;;;6.57;4.60;;;4.10;78.80;;;;;;4905920;29;20040;-73
2023/11/30 00:21:50;;;;;;;5.78;4.45;;;4.10;78.80;;;;;;4899017;29;20040;-73
2023/11/30 00:24:15;;;;;;;5.88;4.63;;;4.10;78.80;;;;;;4895441;29;20450;-74
2023/11/30 00:26:43;;;;;;;6.20;4.43;;;4.00;78.80;;;;;;4913684;29;20032;-73
2023/11/30 00:29:09;;;;;;;6.07;4.55;;;4.00;78.80;;;;;;4912263;29;20036;-73
2023/11/30 00:31:35;;;;;;;5.38;4.32;;;4.00;78.80;;;;;;4882338;29;20552;-73
2023/11/30 00:34:00;;;;;;;5.72;4.22;;;4.00;78.70;;;;;;4896452;29;20032;-74
2023/11/30 00:36:26;;;;;;;6.07;4.72;;;4.00;78.80;;;;;;4912619;29;20060;-73
2023/11/30 00:38:52;;;;;;;6.05;4.47;;;4.00;78.80;;;;;;4896430;29;20036;-73
2023/11/30 00:41:18;;;;;;;5.75;4.15;;;4.00;78.80;;;;;;4912793;29;20047;-73
2023/11/30 00:43:43;;;;;;;5.40;4.18;;;4.00;78.80;;;;;;4911056;29;21652;-73
2023/11/30 00:46:14;;;;;;;5.80;4.15;;;4.00;78.80;;;;;;4915971;29;20028;-73
2023/11/30 00:48:43;;;;;;;6.07;4.43;;;4.00;78.80;;;;;;4915433;29;20043;-74
2023/11/30 00:51:09;;;;;;;6.13;4.68;;;3.90;78.70;;;;;;4913056;29;20749;-74
2023/11/30 00:53:37;;;;;;;6.00;4.60;;;3.90;78.70;;;;;;4914307;29;20039;-73
2023/11/30 00:56:04;;;;;;;5.35;4.18;;;3.90;78.80;;;;;;4911444;29;20051;-73
2023/11/30 00:58:30;;;;;;;5.90;4.13;;;3.90;78.80;;;;;;4898672;29;20110;-73
2023/11/30 01:00:56;;;;;;;5.57;4.28;;;3.90;78.70;;;;;;4912623;29;20485;-74
2023/11/30 01:03:22;;;;;;;6.35;4.65;;;3.90;78.80;;;;;;4898243;29;20127;-73
2023/11/30 01:05:48;;;;;;;5.72;4.47;;;3.90;78.70;;;;;;4895771;29;20037;-73
2023/11/30 01:08:14;;;;;;;5.70;4.22;;;3.90;78.70;;;;;;4913202;29;20512;-73
2023/11/30 01:10:41;;;;;;;5.85;4.50;;;3.90;79.40;;;;;;4913793;29;20036;-73
2023/11/30 01:13:07;;;;;;;5.55;4.55;;;3.80;78.70;;;;;;4895918;29;20039;-74
2023/11/30 01:15:33;;;;;;;6.00;4.70;;;3.80;78.70;;;;;;4913651;29;20092;-74
2023/11/30 01:17:59;;;;;;;5.90;4.45;;;3.80;78.80;;;;;;4865249;29;20044;-73
2023/11/30 01:20:24;;;;;;;6.15;4.53;;;3.80;78.80;;;;;;4914306;29;20051;-73
2023/11/30 01:22:50;;;;;;;6.68;4.57;;;3.80;78.90;;;;;;4912014;29;20025;-73
2023/11/30 01:25:17;;;;;;;6.22;4.40;;;3.80;78.80;;;;;;4896040;29;20420;-73
2023/11/30 01:27:43;;;;;;;6.18;4.50;;;3.80;78.80;;;;;;4896752;29;20040;-73
2023/11/30 01:30:10;;;;;;;5.93;4.53;;;3.80;78.80;;;;;;4912484;29;20042;-73
2023/11/30 01:32:36;;;;;;;6.07;4.80;;;3.80;78.80;;;;;;4897149;29;20043;-73
2023/11/30 01:35:03;;;;;;;5.75;4.43;;;3.80;78.80;;;;;;4895221;29;20028;-74
2023/11/30 01:37:29;;;;;;;6.28;4.78;;;3.70;78.70;;;;;;4896592;29;20119;-73
2023/11/30 01:39:55;;;;;;;6.10;4.30;;;3.70;78.70;;;;;;4896772;29;20047;-74
2023/11/30 01:42:21;;;;;;;5.63;4.50;;;3.70;78.70;;;;;;4913212;29;20032;-74
2023/11/30 01:44:47;;;;;;;5.95;4.43;;;3.70;78.70;;;;;;4913220;29;20055;-74
2023/11/30 01:47:15;;;;;;;6.13;4.65;;;3.70;78.70;;;;;;4914801;29;20563;-74
2023/11/30 01:49:41;;;;;;;6.28;4.65;;;3.70;78.70;;;;;;4911650;29;20450;-73
2023/11/30 01:52:07;;;;;;;6.07;4.72;;;3.70;78.70;;;;;;4915233;29;20028;-73
2023/11/30 01:54:34;;;;;;;5.40;4.45;;;3.70;78.70;;;;;;4916763;29;20020;-73
2023/11/30 01:57:00;;;;;;;5.40;4.20;;;3.70;78.70;;;;;;4892947;29;20043;-73
2023/11/30 01:59:27;;;;;;;5.60;4.43;;;3.70;78.80;;;;;;4906240;29;20044;-73
2023/11/30 02:01:53;;;;;;;5.72;4.25;;;3.60;78.70;;;;;;4906337;29;20043;-73
2023/11/30 02:04:21;;;;;;;5.93;4.35;;;3.70;78.70;;;;;;4896811;29;20036;-73
2023/11/30 02:06:46;;;;;;;5.05;4.03;;;3.70;78.70;;;;;;4900262;29;20032;-74
2023/11/30 02:09:13;;;;;;;6.07;4.60;;;3.60;78.70;;;;;;4924675;29;20453;-73
2023/11/30 02:11:39;;;;;;;6.05;4.95;;;3.60;78.70;;;;;;4920693;29;20465;-73
2023/11/30 02:14:05;;;;;;;5.88;4.53;;;3.60;78.70;;;;;;4924479;29;20437;-73
2023/11/30 02:16:31;;;;;;;6.00;4.32;;;3.60;78.70;;;;;;4912281;29;20063;-73
2023/11/30 02:18:57;;;;;;;5.25;4.18;;;3.60;78.70;;;;;;4897359;29;20119;-73
2023/11/30 02:21:23;;;;;;;4.80;4.05;;;3.60;78.70;;;;;;4911096;29;20040;-74
2023/11/30 02:23:50;;;;;;;4.45;3.83;;;3.60;78.70;;;;;;4894563;29;20497;-73
2023/11/30 02:26:17;;;;;;;5.72;4.78;;;3.60;78.70;;;;;;4912621;29;20028;-73
2023/11/30 02:28:43;;;;;;;5.47;4.38;;;3.60;78.70;;;;;;4911424;29;20027;-73
2023/11/30 02:31:09;;;;;;;5.50;4.25;;;3.60;78.70;;;;;;4910633;29;20044;-74
2023/11/30 02:33:35;;;;;;;5.10;4.28;;;3.60;78.70;;;;;;4912063;29;20030;-74
2023/11/30 02:36:01;;;;;;;5.30;4.25;;;3.60;78.60;;;;;;4911978;29;20025;-74
2023/11/30 02:38:27;;;;;;;5.93;4.90;;;3.60;78.70;;;;;;4895017;29;20032;-73
2023/11/30 02:40:53;;;;;;;5.18;4.35;;;3.60;78.70;;;;;;4911960;29;20096;-73
2023/11/30 02:43:19;;;;;;;5.75;4.30;;;3.60;78.70;;;;;;4895799;29;20530;-73
2023/11/30 02:45:44;;;;;;;5.72;4.25;;;3.60;78.70;;;;;;4894744;29;20485;-73
2023/11/30 02:48:10;;;;;;;4.90;3.85;;;3.60;78.60;;;;;;4916594;29;20047;-73
2023/11/30 02:50:36;;;;;;;6.53;4.75;;;3.70;78.70;;;;;;4911543;29;20567;-73
2023/11/30 02:53:02;;;;;;;5.82;4.45;;;3.70;78.70;;;;;;4894778;29;20511;-74
2023/11/30 02:55:27;;;;;;;5.18;4.32;;;3.60;78.60;;;;;;4894486;29;20564;-73
2023/11/30 02:57:53;;;;;;;6.22;4.70;;;3.60;78.60;;;;;;4893887;29;20047;-73
2023/11/30 03:00:19;;;;;;;5.45;4.20;;;3.60;78.60;;;;;;4910107;29;20557;-73
2023/11/30 03:02:44;;;;;;;6.25;4.65;;;3.70;78.60;;;;;;4893789;29;20044;-74
2023/11/30 03:05:10;;;;;;;5.20;4.25;;;3.70;78.70;;;;;;4896216;29;20393;-74
2023/11/30 03:07:36;;;;;;;5.82;4.90;;;3.60;78.60;;;;;;4909459;29;20028;-73
2023/11/30 03:10:03;;;;;;;5.72;4.70;;;3.70;78.70;;;;;;4913268;29;20050;-74
2023/11/30 03:12:29;;;;;;;5.30;4.30;;;3.60;78.60;;;;;;4909679;29;20650;-73
2023/11/30 03:14:55;;;;;;;6.13;4.70;;;3.70;78.70;;;;;;4911265;29;20036;-74
2023/11/30 03:17:20;;;;;;;6.10;4.40;;;3.70;79.30;;;;;;4910968;29;20028;-74
2023/11/30 03:19:48;;;;;;;6.38;4.68;;;3.70;78.60;;;;;;4893719;29;20483;-73
2023/11/30 03:22:14;;;;;;;6.25;4.75;;;3.70;78.60;;;;;;4892875;29;20047;-73
2023/11/30 03:24:40;;;;;;;5.63;4.38;;;3.70;78.70;;;;;;4906535;29;20119;-74
2023/11/30 03:27:09;;;;;;;5.50;4.47;;;3.70;78.60;;;;;;4911921;29;20033;-73
2023/11/30 03:29:34;;;;;;;5.63;4.20;;;3.70;78.60;;;;;;4909766;29;20040;-73
2023/11/30 03:32:00;;;;;;;5.40;4.28;;;3.70;78.60;;;;;;4896850;29;21930;-74
2023/11/30 03:34:26;;;;;;;5.88;4.30;;;3.70;78.60;;;;;;4894183;29;20039;-76
2023/11/30 03:36:51;;;;;;;5.55;4.25;;;3.70;78.60;;;;;;4914048;29;20064;-74
2023/11/30 03:39:17;;;;;;;6.00;4.80;;;3.70;78.60;;;;;;4895862;29;20492;-73
2023/11/30 03:41:43;;;;;;;5.43;4.43;;;3.70;78.60;;;;;;4912222;29;20028;-74
2023/11/30 03:44:08;;;;;;;5.85;4.60;;;3.70;78.60;;;;;;4894136;29;20040;-74
2023/11/30 03:46:35;;;;;;;6.00;4.80;;;3.70;78.60;;;;;;4895976;29;20032;-73
2023/11/30 03:49:01;;;;;;;6.22;4.78;;;3.70;78.60;;;;;;4879959;29;20127;-73
2023/11/30 03:51:27;;;;;;;6.60;4.45;;;3.70;78.60;;;;;;4908842;29;20456;-73
2023/11/30 03:53:52;;;;;;;6.35;4.68;;;3.70;78.60;;;;;;4893763;29;20032;-73
2023/11/30 03:56:18;;;;;;;6.57;4.80;;;3.70;78.60;;;;;;4911126;29;20052;-73
2023/11/30 03:58:44;;;;;;;5.95;4.80;;;3.80;78.70;;;;;;4897552;29;20032;-73
2023/11/30 04:01:09;;;;;;;6.38;4.60;;;3.80;78.70;;;;;;4912500;29;20116;-73
2023/11/30 04:03:35;;;;;;;6.38;4.68;;;3.70;78.60;;;;;;4914757;29;20060;-73
2023/11/30 04:06:01;;;;;;;5.93;4.53;;;3.70;78.60;;;;;;4909086;29;20496;-73
2023/11/30 04:08:27;;;;;;;5.55;4.25;;;3.70;78.60;;;;;;4915343;29;20040;-73
2023/11/30 04:10:52;;;;;;;5.70;4.45;;;3.80;78.70;;;;;;4909259;29;20112;-73
2023/11/30 04:13:18;;;;;;;5.90;4.43;;;3.80;78.70;;;;;;4921535;29;20028;-73
2023/11/30 04:15:44;;;;;;;5.82;4.43;;;3.80;78.70;;;;;;4874757;29;20075;-74
2023/11/30 04:18:10;;;;;;;5.65;4.40;;;3.80;78.70;;;;;;4892676;29;20068;-74
2023/11/30 04:20:36;;;;;;;5.63;4.53;;;3.80;78.70;;;;;;4879523;29;20080;-73
2023/11/30 04:23:01;;;;;;;5.80;4.72;;;3.80;79.30;;;;;;4867595;29;20047;-73
2023/11/30 04:25:27;;;;;;;5.65;4.63;;;3.80;78.70;;;;;;4893883;29;20040;-73
2023/11/30 04:27:53;;;;;;;5.00;4.30;;;3.70;78.60;;;;;;4894074;29;20040;-73
2023/11/30 04:30:19;;;;;;;6.07;4.40;;;3.80;78.70;;;;;;4876294;29;20043;-74
2023/11/30 04:32:44;;;;;;;7.03;5.47;;;3.80;78.70;;;;;;4894370;29;20040;-74
2023/11/30 04:35:10;;;;;;;7.18;4.80;;;3.80;78.70;;;;;;4892381;29;20093;-74
2023/11/30 04:37:36;;;;;;;6.88;5.13;;;3.80;78.70;;;;;;4893949;29;20040;-74
2023/11/30 04:40:03;;;;;;;6.95;5.05;;;3.70;78.70;;;;;;4909869;29;20044;-73
2023/11/30 04:42:28;;;;;;;6.70;4.53;;;3.70;78.70;;;;;;4894345;29;20063;-74
2023/11/30 04:44:55;;;;;;;5.65;4.60;;;3.70;78.70;;;;;;4912802;29;20126;-74
2023/11/30 04:47:22;;;;;;;6.82;5.65;;;3.80;78.70;;;;;;4916321;29;20123;-74
2023/11/30 04:49:47;;;;;;;5.95;4.68;;;3.70;78.70;;;;;;4896494;29;20489;-74
2023/11/30 04:52:13;;;;;;;5.57;4.47;;;3.70;78.70;;;;;;4915165;29;20031;-74
2023/11/30 04:54:39;;;;;;;6.30;5.32;;;3.70;78.70;;;;;;4882791;29;20039;-74
2023/11/30 04:57:05;;;;;;;6.80;4.82;;;3.80;78.70;;;;;;4900338;29;20064;-74
2023/11/30 04:59:31;;;;;;;7.18;5.63;;;3.70;78.70;;;;;;4895923;29;20517;-74
2023/11/30 05:01:59;;;;;;;6.32;4.88;;;3.70;78.70;;;;;;4914058;29;20036;-74
2023/11/30 05:04:24;;;;;;;6.45;5.03;;;3.70;78.70;;;;;;4912011;29;20036;-74
2023/11/30 05:06:50;;;;;;;6.45;5.30;;;3.70;78.70;;;;;;4897859;29;20028;-73
2023/11/30 05:09:16;;;;;;;7.45;5.60;;;3.70;78.70;;;;;;4898438;29;20040;-75
2023/11/30 05:11:42;;;;;;;7.47;5.72;;;3.70;78.70;;;;;;4897046;29;20397;-74
2023/11/30 05:14:07;;;;;;;6.82;4.78;;;3.70;78.70;;;;;;4898313;29;20028;-74
2023/11/30 05:16:33;;;;;;;7.43;5.28;;;3.70;78.70;;;;;;4895784;29;20485;-73
2023/11/30 05:19:00;;;;;;;6.78;5.53;;;3.70;78.70;;;;;;4897168;29;20082;-73
2023/11/30 05:21:25;;;;;;;7.60;5.90;;;3.70;78.80;;;;;;4913412;29;20048;-74
2023/11/30 05:23:51;;;;;;;6.93;5.22;;;3.70;78.70;;;;;;4912116;29;20053;-74
2023/11/30 05:26:17;;;;;;;8.00;5.82;;;3.70;78.70;;;;;;4913309;29;20040;-74
2023/11/30 05:28:43;;;;;;;7.32;5.43;;;3.70;78.70;;;;;;4897995;29;20101;-73
2023/11/30 05:31:08;;;;;;;7.57;5.68;;;3.70;78.70;;;;;;4894613;29;20062;-74
2023/11/30 05:33:34;;;;;;;6.60;5.03;;;3.70;78.70;;;;;;4911587;29;20036;-74
2023/11/30 05:36:01;;;;;;;7.63;5.78;;;3.70;78.70;;;;;;4913053;29;20028;-74
2023/11/30 05:38:27;;;;;;;8.68;6.25;;;3.70;78.70;;;;;;4912578;29;20099;-73
2023/11/30 05:40:53;;;;;;;8.15;5.75;;;3.70;78.70;;;;;;4912739;29;20820;-74
2023/11/30 05:43:20;;;;;;;7.70;5.68;;;3.70;78.70;;;;;;4895982;29;20040;-73
2023/11/30 05:45:46;;;;;;;6.80;5.32;;;3.70;78.70;;;;;;4910124;29;20043;-74
2023/11/30 05:48:11;;;;;;;7.53;5.90;;;3.70;78.70;;;;;;4915586;29;20451;-74
2023/11/30 05:50:37;;;;;;;7.40;5.78;;;3.70;78.70;;;;;;4916798;29;20062;-74
2023/11/30 05:53:04;;;;;;;7.20;5.22;;;3.70;78.70;;;;;;4920343;29;20040;-74
2023/11/30 05:55:30;;;;;;;7.93;5.72;;;3.60;78.70;;;;;;4899791;29;20038;-74
2023/11/30 05:57:56;;;;;;;7.60;5.50;;;3.70;78.70;;;;;;4919952;29;20036;-74
2023/11/30 06:00:22;;;;;;;8.05;6.10;;;3.70;78.70;;;;;;4914125;29;20086;-74
2023/11/30 06:02:48;;;;;;;8.02;6.13;;;3.70;78.80;;;;;;4916495;29;20032;-74
2023/11/30 06:05:14;;;;;;;7.22;5.70;;;3.70;78.80;;;;;;4914216;29;20040;-75
2023/11/30 06:07:40;;;;;;;7.68;5.90;;;3.60;78.70;;;;;;4905189;29;20536;-74
2023/11/30 06:10:09;;;;;;;8.88;6.07;;;3.60;78.70;;;;;;4920906;29;20028;-74
2023/11/30 06:12:36;;;;;;;8.93;6.13;;;3.60;78.70;;;;;;4910417;29;20040;-73
2023/11/30 06:15:02;;;;;;;7.75;5.68;;;3.60;78.70;;;;;;4887162;29;20548;-74
2023/11/30 06:17:28;;;;;;;7.78;5.43;;;3.60;78.80;;;;;;4920267;29;20107;-74
2023/11/30 06:19:53;;;;;;;7.85;5.68;;;3.60;78.70;;;;;;4895758;29;20131;-74
2023/11/30 06:22:19;;;;;;;7.68;5.50;;;3.60;78.70;;;;;;4906098;29;20092;-73
2023/11/30 06:24:45;;;;;;;8.85;6.35;;;3.60;78.70;;;;;;4897691;29;20523;-73
2023/11/30 06:27:11;;;;;;;8.55;6.28;;;3.60;78.70;;;;;;4912836;29;20055;-72
2023/11/30 06:29:36;;;;;;;9.18;6.47;;;3.60;78.70;;;;;;4905383;29;20047;-72
2023/11/30 06:32:02;;;;;;;7.50;5.75;;;3.60;78.70;;;;;;4913206;29;20032;-72
2023/11/30 06:34:28;;;;;;;8.23;6.32;;;3.60;78.80;;;;;;4889032;29;20043;-72
2023/11/30 06:36:54;;;;;;;8.68;6.47;;;3.60;78.80;;;;;;4900576;29;20035;-73
2023/11/30 06:39:20;;;;;;;8.02;5.85;;;3.60;78.80;;;;;;4923368;29;20139;-74
2023/11/30 06:41:49;;;;;;;7.85;6.13;;;3.60;78.80;;;;;;4890212;29;20106;-73
2023/11/30 06:44:15;;;;;;;7.80;6.18;;;3.60;78.80;;;;;;4926188;29;20119;-72
2023/11/30 06:46:42;;;;;;;8.82;6.47;;;3.60;78.80;;;;;;4893220;29;20040;-72
2023/11/30 06:49:12;;;;;;;8.63;6.53;;;3.60;78.80;;;;;;4913545;29;20036;-73
2023/11/30 06:51:38;;;;;;;8.20;5.97;;;3.50;79.40;;;;;;4914816;29;20047;-73
2023/11/30 06:54:04;;;;;;;7.70;6.18;;;3.60;78.80;;;;;;4922889;29;20032;-75
2023/11/30 06:56:30;;;;;;;8.05;6.13;;;3.60;78.80;;;;;;4914695;29;20037;-75
2023/11/30 06:58:56;;;;;;;9.35;6.90;;;3.60;78.80;;;;;;4921761;29;20039;-74
2023/11/30 07:01:29;;;;;;;8.07;6.18;;;3.60;78.70;;;;;;4907307;29;20485;-74
2023/11/30 07:03:56;;;;;;;7.90;5.68;;;3.60;78.70;;;;;;4925559;29;20047;-75
2023/11/30 07:06:22;;;;;;;8.40;7.05;;;3.60;78.70;;;;;;4932678;29;20036;-73
2023/11/30 07:08:48;;;;;;;8.13;6.00;;;3.60;78.70;;;;;;4907898;29;20028;-73
2023/11/30 07:11:17;;;;;;;8.32;6.68;;;3.60;78.80;;;;;;4923613;29;20155;-73
2023/11/30 07:13:42;;;;;;;7.68;6.13;;;3.60;78.80;;;;;;4922117;29;20493;-73
2023/11/30 07:16:09;;;;;;;8.10;5.93;;;3.60;78.70;;;;;;4916374;29;20035;-72
2023/11/30 07:18:35;;;;;;;8.25;6.03;;;3.60;78.70;;;;;;4902724;29;20036;-72
2023/11/30 07:21:00;;;;;;;9.70;7.10;;;3.60;78.70;;;;;;4905581;29;20043;-72
2023/11/30 07:23:26;;;;;;;8.15;6.05;;;3.60;78.70;;;;;;4916029;29;20481;-73
2023/11/30 07:25:52;;;;;;;9.05;6.88;;;3.60;78.70;;;;;;4920384;29;20047;-73
2023/11/30 07:28:18;;;;;;;9.10;6.90;;;3.60;78.70;;;;;;4899021;29;20540;-73
2023/11/30 07:30:44;;;;;;;8.10;6.40;;;3.70;78.70;;;;;;4915869;29;20474;-73
2023/11/30 07:33:10;;;;;;;9.15;6.60;;;3.70;78.70;;;;;;4899895;29;20036;-74
2023/11/30 07:35:39;;;;;;;10.60;7.05;;;3.60;78.60;;;;;;4919210;29;20036;-73
2023/11/30 07:38:05;;;;;;;8.48;6.20;;;3.70;78.70;;;;;;4919240;29;20138;-73
2023/11/30 07:40:34;;;;;;;7.40;5.38;;;3.70;78.70;;;;;;4920152;29;20109;-73
2023/11/30 07:43:00;;;;;;;8.93;6.80;;;3.60;78.70;;;;;;4906590;29;20482;-73
2023/11/30 07:45:28;;;;;;;8.18;6.38;;;3.70;78.70;;;;;;4915437;29;20068;-73
2023/11/30 07:47:56;;;;;;;8.25;6.75;;;3.70;78.70;;;;;;4916525;29;20553;-74
2023/11/30 07:50:22;;;;;;;8.80;6.63;;;3.70;78.70;;;;;;4907293;29;20119;-73
2023/11/30 07:52:48;;;;;;;9.38;6.70;;;3.70;78.70;;;;;;4918273;29;20044;-73
2023/11/30 07:55:14;;;;;;;7.78;6.10;;;3.70;78.70;;;;;;4903522;29;20044;-73
2023/11/30 07:57:40;;;;;;;8.07;6.25;;;3.70;78.70;;;;;;4916474;29;20551;-73
2023/11/30 08:00:11;;;;;;;8.52;6.53;;;3.70;78.70;;;;;;4915466;29;20044;-73
2023/11/30 08:02:37;;;;;;;7.78;5.80;;;3.70;78.70;;;;;;4916510;29;20086;-73
2023/11/30 08:05:05;;;;;;;8.35;6.65;;;3.80;78.70;;;;;;4902118;29;20067;-73
2023/11/30 08:07:34;;;;;;;9.35;7.03;;;3.80;78.70;;;;;;4901219;29;20071;-73
2023/11/30 08:10:00;;;;;;;9.77;6.40;;;3.80;78.70;;;;;;4913625;29;20123;-73
2023/11/30 08:12:25;;;;;;;8.27;6.35;;;3.80;78.70;;;;;;4913532;29;20111;-73
2023/11/30 08:14:51;;;;;;;9.23;7.07;;;3.80;78.70;;;;;;4906169;29;20043;-73
2023/11/30 08:17:17;;;;;;;8.77;6.90;;;3.80;78.70;;;;;;4900465;29;20036;-73
2023/11/30 08:19:43;;;;;;;8.05;5.82;;;3.80;78.70;;;;;;4915315;29;20028;-73
2023/11/30 08:22:09;;;;;;;8.43;6.43;;;3.80;78.70;;;;;;4918804;29;20048;-73
2023/11/30 08:24:37;;;;;;;8.55;6.65;;;3.80;78.70;;;;;;4928301;29;20060;-73
2023/11/30 08:27:03;;;;;;;8.75;6.90;;;3.80;78.70;;;;;;4910406;29;20036;-72
2023/11/30 08:29:28;;;;;;;8.93;6.18;;;3.80;78.70;;;;;;4925661;29;20039;-73
2023/11/30 08:31:54;;;;;;;7.80;6.28;;;3.90;78.70;;;;;;4909723;29;20032;-73
2023/11/30 08:34:20;;;;;;;8.20;6.53;;;3.90;78.70;;;;;;4919944;29;20039;-73
2023/11/30 08:36:47;;;;;;;8.55;6.68;;;3.90;78.70;;;;;;4908958;29;20032;-73
2023/11/30 08:39:13;;;;;;;9.50;6.95;;;3.90;78.70;;;;;;4915152;29;20485;-73
2023/11/30 08:41:39;;;;;;;8.20;6.60;;;3.90;78.70;;;;;;4919888;29;20055;-73
2023/11/30 08:44:05;;;;;;;8.57;6.57;;;3.90;78.70;;;;;;4930158;29;20035;-73
2023/11/30 08:46:33;;;;;;;8.57;6.35;;;3.90;78.80;;;;;;4924833;29;20382;-73
2023/11/30 08:48:59;;;;;;;8.15;6.40;;;3.90;78.70;;;;;;4919668;29;20106;-72
2023/11/30 08:51:25;;;;;;;8.20;6.47;;;3.90;78.70;;;;;;4922984;29;20066;-72
2023/11/30 08:53:51;;;;;;;7.97;6.00;;;3.90;78.70;;;;;;4898022;29;20032;-71
2023/11/30 08:56:16;;;;;;;8.57;6.70;;;4.00;78.80;;;;;;4918626;29;20036;-73
2023/11/30 08:58:43;;;;;;;9.20;6.60;;;3.90;78.70;;;;;;4920311;29;20322;-73
2023/11/30 09:01:09;;;;;;;9.75;6.95;;;4.00;78.80;;;;;;4907032;29;20032;-73
2023/11/30 09:03:35;;;;;;;8.43;6.25;;;4.00;78.80;;;;;;4886245;29;20055;-73
2023/11/30 09:06:01;;;;;;;8.23;6.35;;;4.00;78.80;;;;;;4918283;29;20036;-74
2023/11/30 09:08:26;;;;;;;8.27;6.68;;;4.00;78.80;;;;;;4912977;29;20032;-73
2023/11/30 09:10:52;;;;;;;10.20;6.97;;;4.00;78.80;;;;;;4909327;29;20072;-73
2023/11/30 09:13:18;;;;;;;9.23;7.05;;;4.00;78.80;;;;;;4906128;29;20468;-73
2023/11/30 09:15:43;;;;;;;9.43;7.25;;;4.00;78.70;;;;;;4912700;29;20080;-73
2023/11/30 09:18:10;;;;;;;9.50;7.20;;;4.00;78.70;;;;;;4879729;29;20508;-73
2023/11/30 09:20:37;;;;;;;8.43;6.78;;;4.00;78.80;;;;;;4920333;29;20460;-73
2023/11/30 09:23:06;;;;;;;9.75;6.82;;;4.00;78.80;;;;;;4909563;29;20027;-73
2023/11/30 09:25:33;;;;;;;8.80;6.88;;;4.10;78.80;;;;;;4921193;29;20196;-72
2023/11/30 09:27:59;;;;;;;8.02;6.50;;;4.10;78.80;;;;;;4886218;29;20032;-72
2023/11/30 09:30:24;;;;;;;8.50;6.70;;;4.10;78.80;;;;;;4919612;29;20297;-73
2023/11/30 09:32:53;;;;;;;8.63;6.35;;;4.10;78.80;;;;;;4907823;29;20511;-73
2023/11/30 09:35:18;;;;;;;8.98;6.80;;;4.10;78.80;;;;;;4889183;29;20503;-73
2023/11/30 09:37:46;;;;;;;8.73;6.97;;;4.10;78.80;;;;;;4917673;29;20111;-73
2023/11/30 09:40:12;;;;;;;8.50;6.90;;;4.10;78.80;;;;;;4905887;29;20032;-73
2023/11/30 09:42:38;;;;;;;9.68;7.53;;;4.10;78.80;;;;;;4901591;29;20479;-73
2023/11/30 09:45:05;;;;;;;9.40;7.22;;;4.10;78.80;;;;;;4908449;29;20112;-73
2023/11/30 09:47:31;;;;;;;10.65;7.20;;;4.10;78.80;;;;;;4905483;29;20024;-73
2023/11/30 09:50:00;;;;;;;9.23;7.18;;;4.20;78.80;;;;;;4902748;29;20347;-73
2023/11/30 09:52:27;;;;;;;8.40;6.20;;;4.20;78.80;;;;;;4917534;29;20040;-73
2023/11/30 09:54:54;;;;;;;8.80;6.85;;;4.20;78.80;;;;;;4923151;29;20039;-73
2023/11/30 09:57:20;;;;;;;9.35;6.68;;;4.20;78.90;;;;;;4905568;29;20060;-73
2023/11/30 09:59:46;;;;;;;9.68;7.45;;;4.20;78.80;;;;;;4902510;29;20412;-73
2023/11/30 10:02:12;;;;;;;10.40;7.45;;;4.20;78.80;;;;;;4920076;29;20038;-73
2023/11/30 10:04:42;;;;;;;8.70;6.43;;;4.20;78.80;;;;;;4908197;29;20040;-73
2023/11/30 10:07:08;;;;;;;8.90;6.95;;;4.30;78.90;;;;;;4917174;29;20037;-73
2023/11/30 10:09:35;;;;;;;10.02;7.13;;;4.20;78.80;;;;;;4919880;29;20040;-73
2023/11/30 10:12:01;;;;;;;8.35;6.47;;;4.30;78.90;;;;;;4898631;29;20123;-73
2023/11/30 10:14:27;;;;;;;8.82;6.72;;;4.30;78.90;;;;;;4925247;29;20549;-73
2023/11/30 10:16:52;;;;;;;9.48;7.40;;;4.30;78.90;;;;;;4900335;29;20556;-73
2023/11/30 10:19:18;;;;;;;9.95;7.03;;;4.30;78.80;;;;;;4903894;29;20040;-73
2023/11/30 10:21:44;;;;;;;8.20;6.80;;;4.30;78.80;;;;;;4885648;29;20598;-73
2023/11/30 10:24:10;;;;;;;9.02;7.20;;;4.30;78.80;;;;;;4917220;29;20048;-73
2023/11/30 10:26:37;;;;;;;9.02;6.70;;;4.40;78.90;;;;;;4922765;29;20032;-73
2023/11/30 10:29:06;;;;;;;8.90;7.05;;;4.30;78.80;;;;;;4904195;29;20032;-73
2023/11/30 10:31:35;;;;;;;10.07;7.53;;;4.40;78.90;;;;;;4882227;29;20033;-73
2023/11/30 10:34:09;;;;;;;8.93;6.65;;;4.40;78.90;;;;;;4916608;29;20036;-74
2023/11/30 10:36:37;;;;;;;9.15;6.65;;;4.40;78.90;;;;;;4917609;29;20059;-73
2023/11/30 10:39:16;;;;;;;9.57;6.70;;;4.40;78.90;;;;;;4920719;29;20035;-73
2023/11/30 10:41:55;;;;;;;9.00;6.28;;;4.40;78.90;;;;;;4924566;29;20063;-72
2023/11/30 10:44:27;;;;;;;9.40;7.13;;;4.40;78.90;;;;;;4924466;29;20020;-73
2023/11/30 10:46:58;;;;;;;10.13;7.30;;;4.50;78.90;;;;;;4910355;29;20489;-75
2023/11/30 10:49:25;;;;;;;10.25;7.72;;;4.50;78.90;;;;;;4917071;29;20039;-74
2023/11/30 10:51:54;;;;;;;9.18;6.70;;;4.50;78.90;;;;;;4916019;29;20066;-74
2023/11/30 10:54:32;;;;;;;9.63;7.15;;;4.50;78.90;;;;;;4916757;29;20034;-74
2023/11/30 10:57:02;;;;;;;10.57;7.53;;;4.50;78.90;;;;;;4920719;29;20036;-73
2023/11/30 10:59:30;;;;;;;9.45;7.38;;;4.50;78.90;;;;;;4917511;29;20032;-74
2023/11/30 11:01:56;;;;;;;10.88;8.05;;;4.50;79.00;;;;;;4925131;29;20119;-74
2023/11/30 11:04:27;;;;;;;10.15;7.22;;;4.50;78.90;;;;;;4920114;29;20051;-74
2023/11/30 11:07:16;;;;;;;10.70;8.43;;;4.50;78.90;;;;;;4909465;29;20456;-74
2023/11/30 11:09:44;;;;;;;9.25;7.20;;;4.60;79.00;;;;;;4925561;29;20115;-74
2023/11/30 11:12:24;;;;;;;10.30;7.78;;;4.60;79.00;;;;;;4893060;29;20092;-72
2023/11/30 11:14:51;;;;;;;11.98;7.82;;;4.60;79.00;;;;;;4921384;29;20020;-73
2023/11/30 11:17:20;;;;;;;9.32;6.93;;;4.60;78.90;;;;;;4924502;29;20493;-72
2023/11/30 11:19:46;;;;;;;10.88;7.95;;;4.70;79.00;;;;;;4888138;29;20028;-74
2023/11/30 11:22:19;;;;;;;10.60;7.68;;;4.60;78.90;;;;;;4908571;29;20446;-73
2023/11/30 11:24:46;;;;;;;10.10;7.72;;;4.70;79.00;;;;;;4921426;29;20048;-73
2023/11/30 11:27:24;;;;;;;10.65;7.97;;;4.60;78.90;;;;;;4912950;29;20115;-73
2023/11/30 11:29:50;;;;;;;11.23;8.10;;;4.70;79.00;;;;;;4904915;29;20040;-74
2023/11/30 11:32:17;;;;;;;10.93;7.88;;;4.70;79.00;;;;;;4915551;29;20104;-73
2023/11/30 11:34:42;;;;;;;10.48;7.57;;;4.70;79.00;;;;;;4912839;29;20040;-73
2023/11/30 11:37:08;;;;;;;11.32;8.55;;;4.70;79.00;;;;;;4902672;29;20120;-73
2023/11/30 11:39:34;;;;;;;11.52;8.50;;;4.80;79.00;;;;;;4897618;29;20496;-72
2023/11/30 11:41:59;;;;;;;10.10;7.65;;;4.80;79.00;;;;;;4909753;29;20035;-72
2023/11/30 11:44:25;;;;;;;12.40;8.60;;;4.80;79.00;;;;;;4921301;29;20040;-72
2023/11/30 11:46:51;;;;;;;11.25;8.48;;;4.80;79.00;;;;;;4901924;29;20028;-73
2023/11/30 11:49:17;;;;;;;12.25;8.85;;;4.80;79.00;;;;;;4921983;29;20115;-73
2023/11/30 11:51:44;;;;;;;13.23;9.07;;;4.80;79.00;;;;;;4904842;29;20115;-73
2023/11/30 11:54:20;;;;;;;12.82;8.88;;;4.80;79.00;;;;;;4922185;29;20028;-73
2023/11/30 11:56:51;;;;;;;11.27;8.88;;;4.90;79.10;;;;;;4923289;29;20028;-74
2023/11/30 11:59:21;;;;;;;12.80;8.65;;;4.90;79.00;;;;;;4914581;29;20048;-73
2023/11/30 12:01:47;;;;;;;12.18;9.02;;;4.90;79.00;;;;;;4917824;29;20037;-73
2023/11/30 12:04:24;;;;;;;12.07;8.77;;;4.90;79.00;;;;;;4913933;29;20557;-73
2023/11/30 12:06:50;;;;;;;12.48;9.13;;;4.90;79.00;;;;;;4920992;29;20097;-74
2023/11/30 12:09:15;;;;;;;12.15;8.80;;;5.00;79.00;;;;;;4922116;29;20135;-73
2023/11/30 12:11:41;;;;;;;13.00;9.27;;;5.00;79.00;;;;;;4902728;29;20091;-73
2023/11/30 12:14:07;;;;;;;13.20;9.23;;;5.00;79.00;;;;;;4918864;29;20473;-73
2023/11/30 12:16:35;;;;;;;13.23;9.30;;;5.00;79.00;;;;;;4926573;29;20036;-72
2023/11/30 12:19:01;;;;;;;14.35;9.82;;;5.00;79.00;;;;;;4919047;29;20040;-72
2023/11/30 12:21:27;;;;;;;12.95;8.90;;;5.00;79.00;;;;;;4914279;29;20036;-73
2023/11/30 12:23:53;;;;;;;13.95;9.80;;;5.10;79.10;;;;;;4901732;29;20067;-73
2023/11/30 12:26:18;;;;;;;14.10;9.75;;;5.00;79.00;;;;;;4894813;29;20080;-73
2023/11/30 12:28:44;;;;;;;14.85;10.43;;;5.10;79.10;;;;;;4927198;29;20055;-73
2023/11/30 12:31:10;;;;;;;14.45;10.23;;;5.10;79.10;;;;;;4924907;29;20039;-73
2023/11/30 12:33:36;;;;;;;13.40;9.73;;;5.10;79.10;;;;;;4927706;29;20453;-73
2023/11/30 12:36:01;;;;;;;13.45;9.68;;;5.10;79.70;;;;;;4918202;29;20112;-73
2023/11/30 12:38:30;;;;;;;13.73;9.80;;;5.10;79.10;;;;;;4910408;29;20032;-73
2023/11/30 12:40:56;;;;;;;12.75;9.20;;;5.10;79.10;;;;;;4908665;29;20569;-73
2023/11/30 12:43:22;;;;;;;13.63;10.05;;;5.10;79.10;;;;;;4916972;29;20028;-72
2023/11/30 12:45:48;;;;;;;13.00;8.90;;;5.10;79.10;;;;;;4904100;29;20036;-73
2023/11/30 12:48:14;;;;;;;14.10;9.90;;;5.20;79.10;;;;;;4916762;29;20059;-72
2023/11/30 12:50:41;;;;;;;13.45;9.75;;;5.20;79.10;;;;;;4923948;29;20032;-73
2023/11/30 12:53:06;;;;;;;14.43;10.18;;;5.20;79.10;;;;;;4918514;29;20093;-73